Loiza, Puerto Rico
Current Conditions -  °F | °C
As of 12:53 AM on Monday 20 Oct 2014 (Local Time) from TJNR Reporting Station
Clear Clear  
Wind Chill: 77°   Ceiling: Unl
Heat Index: 78°   Visibility: 10mi
Dew Point: 74°   Wind: 0mph
Humidity: 90%   Direction: NA
Pressure: 29.97"   Gusts: NA
Location:  18.2°N, 65.86°W
Report Text: TJNR 200453Z AUTO 00000KT 10SM CLR 25/23 A2997 RMK AO2 RAB0355E08 SLP150 P0000 T02500233 $
Loading
Personal Weather Stations






























Interactive Weather Map
Tropical Storm Tracking
New forecast layout! Learn more

10-Day Weather Forecast

Advertisements
Track Severe Weather on mobile